createdAt,value
2023-07-01T00:01:52.753Z,19.26
2023-07-01T00:04:57.320Z,19.42
2023-07-01T00:08:01.795Z,19.17
2023-07-01T00:11:06.341Z,19.26
2023-07-01T00:14:10.761Z,19.10
2023-07-01T00:17:18.529Z,19.15
2023-07-01T00:20:23.012Z,18.97
2023-07-01T00:23:27.417Z,19.11
2023-07-01T00:26:31.766Z,19.23
2023-07-01T00:29:36.196Z,18.81
2023-07-01T00:32:40.788Z,18.20
2023-07-01T00:35:46.674Z,18.15
2023-07-01T00:38:54.197Z,18.45
2023-07-01T00:41:58.636Z,18.56
2023-07-01T00:45:03.155Z,18.84
2023-07-01T00:48:08.029Z,18.67
2023-07-01T00:51:12.891Z,18.59
2023-07-01T00:54:17.400Z,18.64
2023-07-01T00:57:26.254Z,18.70
2023-07-01T01:00:30.648Z,18.93
2023-07-01T01:03:44.393Z,19.04
2023-07-01T01:06:59.298Z,19.05
2023-07-01T01:10:10.422Z,18.64
2023-07-01T01:13:17.108Z,18.82
2023-07-01T01:16:21.888Z,19.00
2023-07-01T01:19:29.364Z,18.75
2023-07-01T01:22:47.056Z,19.00
2023-07-01T01:26:08.185Z,18.40
2023-07-01T01:29:12.661Z,18.51
2023-07-01T01:32:17.184Z,18.67
2023-07-01T01:35:23.324Z,18.91
2023-07-01T01:38:31.698Z,18.66
2023-07-01T01:41:49.425Z,18.88
2023-07-01T01:44:54.663Z,18.24
2023-07-01T01:47:59.077Z,18.77
2023-07-01T01:51:04.313Z,18.83
2023-07-01T01:54:10.564Z,19.12
2023-07-01T01:57:15.450Z,19.26
2023-07-01T02:00:20.151Z,19.28
2023-07-01T02:03:24.906Z,19.12
2023-07-01T02:06:29.394Z,19.02
2023-07-01T02:09:33.911Z,18.90
2023-07-01T02:12:38.404Z,18.81
2023-07-01T02:15:42.858Z,18.90
2023-07-01T02:18:47.293Z,18.24
2023-07-01T02:21:51.764Z,18.37
2023-07-01T02:24:56.207Z,18.64
2023-07-01T02:28:00.701Z,18.80
2023-07-01T02:31:05.209Z,18.74
2023-07-01T02:34:09.631Z,18.85
2023-07-01T02:37:14.221Z,18.66
2023-07-01T02:40:18.662Z,18.60
2023-07-01T02:43:23.109Z,17.24
2023-07-01T02:46:29.990Z,17.97
2023-07-01T02:49:34.537Z,17.98
2023-07-01T02:52:39.409Z,18.08
2023-07-01T02:55:43.867Z,17.78
2023-07-01T02:58:48.369Z,17.53
2023-07-01T03:01:52.818Z,17.53
2023-07-01T03:04:57.272Z,18.06
2023-07-01T03:08:04.614Z,17.95
2023-07-01T03:11:09.319Z,17.54
2023-07-01T03:14:13.990Z,18.06
2023-07-01T03:17:18.582Z,18.15
2023-07-01T03:20:25.996Z,18.35
2023-07-01T03:23:31.229Z,18.23
2023-07-01T03:26:36.972Z,18.53
2023-07-01T03:29:42.493Z,18.66
2023-07-01T03:32:48.618Z,18.39
2023-07-01T03:35:53.109Z,18.63
2023-07-01T03:38:59.031Z,18.73
2023-07-01T03:42:03.501Z,18.77
2023-07-01T03:45:09.089Z,19.01
2023-07-01T03:48:13.621Z,18.96
2023-07-01T03:51:18.093Z,18.88
2023-07-01T03:54:24.176Z,18.90
2023-07-01T03:57:28.561Z,19.16
2023-07-01T04:00:33.038Z,18.93
2023-07-01T04:03:38.310Z,19.14
2023-07-01T04:06:42.720Z,19.30
2023-07-01T04:09:47.210Z,19.25
2023-07-01T04:12:51.709Z,19.52
2023-07-01T04:15:56.205Z,19.74
2023-07-01T04:19:00.874Z,19.15
2023-07-01T04:22:05.306Z,19.34
2023-07-01T04:25:10.033Z,19.18
2023-07-01T04:28:14.524Z,19.62
2023-07-01T04:31:19.646Z,19.01
2023-07-01T04:34:24.059Z,18.95
2023-07-01T04:37:28.491Z,19.02
2023-07-01T04:40:32.939Z,18.86
2023-07-01T04:43:39.214Z,19.45
2023-07-01T04:46:45.883Z,19.43
2023-07-01T04:49:53.564Z,19.00
2023-07-01T04:52:58.053Z,18.83
2023-07-01T04:56:02.403Z,19.23
2023-07-01T04:59:06.932Z,19.26
2023-07-01T05:02:11.417Z,19.39
2023-07-01T05:05:16.082Z,19.47
2023-07-01T05:08:21.714Z,19.80
2023-07-01T05:11:27.024Z,19.79
2023-07-01T05:14:31.601Z,19.69
2023-07-01T05:17:36.064Z,19.62
2023-07-01T05:20:41.587Z,19.76
2023-07-01T05:23:47.632Z,19.77
2023-07-01T05:26:52.529Z,19.99
2023-07-01T05:29:57.483Z,19.95
2023-07-01T05:33:02.061Z,20.10
2023-07-01T05:36:08.251Z,20.04
2023-07-01T05:39:12.916Z,20.63
2023-07-01T05:42:17.278Z,19.69
2023-07-01T05:45:21.813Z,20.22
2023-07-01T05:48:29.220Z,20.19
2023-07-01T05:51:34.068Z,19.77
2023-07-01T05:54:38.540Z,19.94
2023-07-01T05:57:42.961Z,19.68
2023-07-01T06:00:47.635Z,19.94
2023-07-01T06:03:52.331Z,20.25
2023-07-01T06:06:56.888Z,20.59
2023-07-01T06:10:01.289Z,20.87
2023-07-01T06:13:05.827Z,20.44
2023-07-01T06:16:10.312Z,20.63
2023-07-01T06:19:16.336Z,20.63
2023-07-01T06:22:20.792Z,20.48
2023-07-01T06:25:25.282Z,20.28
2023-07-01T06:28:29.721Z,20.84
2023-07-01T06:31:34.257Z,21.21
2023-07-01T06:34:38.793Z,21.22
2023-07-01T06:37:43.348Z,21.16
2023-07-01T06:40:47.996Z,21.13
2023-07-01T06:43:53.589Z,20.51
2023-07-01T06:46:58.522Z,20.80
2023-07-01T06:50:02.988Z,20.98
2023-07-01T06:53:07.493Z,20.94
2023-07-01T06:56:11.979Z,20.49
2023-07-01T06:59:16.397Z,20.68
2023-07-01T07:02:23.705Z,20.58
2023-07-01T07:05:28.329Z,20.76
2023-07-01T07:08:32.954Z,20.66
2023-07-01T07:11:37.392Z,20.77
2023-07-01T07:14:41.854Z,21.14
2023-07-01T07:17:46.317Z,20.73
2023-07-01T07:23:19.210Z,21.24
2023-07-01T07:26:23.751Z,21.90
2023-07-01T07:30:56.362Z,21.46
2023-07-01T07:34:02.231Z,21.85
2023-07-01T07:37:07.165Z,21.46
2023-07-01T07:40:12.011Z,21.87
2023-07-01T07:43:16.598Z,21.90
2023-07-01T07:46:21.208Z,21.44
2023-07-01T07:49:25.642Z,21.60
2023-07-01T07:52:30.423Z,21.98
2023-07-01T07:55:35.551Z,21.78
2023-07-01T07:58:40.370Z,21.32
2023-07-01T08:01:44.792Z,21.30
2023-07-01T08:04:49.390Z,21.33
2023-07-01T08:07:53.896Z,21.09
2023-07-01T08:10:59.546Z,21.09
2023-07-01T08:14:03.906Z,20.82
2023-07-01T08:17:08.375Z,20.79
2023-07-01T08:20:13.114Z,20.73
2023-07-01T08:23:17.731Z,21.46
2023-07-01T08:26:24.627Z,20.83
2023-07-01T08:29:29.050Z,21.32
2023-07-01T08:32:34.758Z,21.01
2023-07-01T08:35:39.293Z,21.11
2023-07-01T08:38:44.141Z,20.92
2023-07-01T08:41:53.053Z,20.67
2023-07-01T08:44:57.872Z,20.52
2023-07-01T08:48:04.706Z,20.82
2023-07-01T08:51:18.254Z,21.03
2023-07-01T08:54:22.846Z,20.64
2023-07-01T08:57:28.593Z,20.57
2023-07-01T09:00:33.042Z,20.80
2023-07-01T09:03:37.994Z,20.98
2023-07-01T09:06:42.456Z,21.77
2023-07-01T09:09:47.013Z,22.60
2023-07-01T09:12:51.540Z,22.78
2023-07-01T09:15:56.004Z,22.40
2023-07-01T09:19:07.564Z,22.74
2023-07-01T09:22:12.059Z,23.57
2023-07-01T09:25:26.766Z,22.89
2023-07-01T09:28:32.194Z,23.23
2023-07-01T09:31:54.568Z,23.84
2023-07-01T09:34:59.152Z,23.08
2023-07-01T09:38:03.656Z,25.12
2023-07-01T09:41:27.940Z,25.15
2023-07-01T09:44:34.299Z,24.87
2023-07-01T09:47:38.738Z,26.07
2023-07-01T09:50:43.215Z,26.38
2023-07-01T09:53:47.869Z,28.17
2023-07-01T09:56:53.972Z,26.09
2023-07-01T09:59:58.513Z,27.39
2023-07-01T10:03:03.578Z,25.86
2023-07-01T10:06:08.186Z,25.13
2023-07-01T10:09:12.540Z,26.26
2023-07-01T10:12:20.668Z,25.26
2023-07-01T10:15:26.035Z,24.31
2023-07-01T10:18:31.545Z,23.99
2023-07-01T10:21:35.972Z,24.18
2023-07-01T10:24:40.598Z,25.09
2023-07-01T10:27:44.997Z,24.15
2023-07-01T10:30:49.405Z,23.98
2023-07-01T10:33:54.249Z,24.15
2023-07-01T10:37:11.470Z,23.41
2023-07-01T10:40:31.007Z,23.66
2023-07-01T10:43:37.732Z,24.75
2023-07-01T10:46:42.168Z,24.55
2023-07-01T10:50:02.583Z,24.15
2023-07-01T10:53:07.161Z,23.92
2023-07-01T10:56:16.240Z,23.77
2023-07-01T10:59:30.803Z,23.70
2023-07-01T11:02:37.389Z,24.39
2023-07-01T11:06:10.016Z,23.91
2023-07-01T11:09:15.094Z,24.54
2023-07-01T11:12:19.620Z,25.33
2023-07-01T11:15:23.980Z,25.20
2023-07-01T11:18:48.775Z,26.10
2023-07-01T11:21:53.714Z,25.83
2023-07-01T11:25:07.034Z,25.93
2023-07-01T11:28:11.526Z,24.46
2023-07-01T11:31:17.604Z,24.48
2023-07-01T11:34:22.064Z,22.97
2023-07-01T11:37:27.407Z,22.48
2023-07-01T11:40:41.452Z,23.75
2023-07-01T11:43:46.483Z,23.17
2023-07-01T11:46:51.100Z,23.40
2023-07-01T11:50:03.372Z,23.84
2023-07-01T11:55:53.936Z,23.40
2023-07-01T11:59:01.230Z,23.15
2023-07-01T12:02:06.277Z,22.65
2023-07-01T12:05:11.364Z,22.70
2023-07-01T12:08:15.916Z,23.30
2023-07-01T12:11:24.344Z,23.68
2023-07-01T12:14:30.477Z,24.22
2023-07-01T12:17:36.165Z,24.90
2023-07-01T12:20:41.993Z,25.10
2023-07-01T12:23:46.592Z,25.15
2023-07-01T12:26:52.387Z,24.60
2023-07-01T12:29:57.435Z,24.67
2023-07-01T12:33:03.517Z,24.03
2023-07-01T12:36:08.254Z,24.31
2023-07-01T12:39:13.361Z,25.35
2023-07-01T12:42:17.932Z,23.86
2023-07-01T12:45:22.345Z,25.53
2023-07-01T12:48:27.523Z,27.07
2023-07-01T12:51:36.077Z,27.48
2023-07-01T12:54:40.621Z,27.80
2023-07-01T12:57:45.112Z,28.41
2023-07-01T13:01:01.690Z,26.47
2023-07-01T13:04:10.901Z,26.66
2023-07-01T13:07:18.181Z,26.73
2023-07-01T13:10:24.445Z,29.22
2023-07-01T13:13:28.883Z,28.01
2023-07-01T13:16:33.337Z,27.48
2023-07-01T13:19:37.834Z,28.06
2023-07-01T13:22:42.301Z,27.18
2023-07-01T13:25:46.969Z,26.39
2023-07-01T13:28:51.730Z,26.76
2023-07-01T13:31:56.370Z,26.80
2023-07-01T13:35:02.437Z,25.58
2023-07-01T13:38:07.897Z,26.19
2023-07-01T13:41:14.012Z,26.33
2023-07-01T13:44:20.595Z,25.63
2023-07-01T13:47:37.818Z,26.23
2023-07-01T13:50:42.607Z,26.28
2023-07-01T13:53:47.821Z,26.70
2023-07-01T13:56:53.184Z,25.64
2023-07-01T13:59:57.828Z,25.94
2023-07-01T14:03:04.039Z,26.63
2023-07-01T14:06:10.266Z,26.97
2023-07-01T14:09:21.635Z,26.91
2023-07-01T14:12:26.866Z,26.97
2023-07-01T14:15:36.131Z,27.48
2023-07-01T14:18:41.708Z,27.66
2023-07-01T14:21:50.512Z,26.98
2023-07-01T14:24:55.340Z,26.89
2023-07-01T14:28:01.784Z,26.76
2023-07-01T14:31:08.545Z,26.38
2023-07-01T14:34:13.188Z,26.89
2023-07-01T14:37:17.615Z,27.72
2023-07-01T14:40:21.997Z,27.45
2023-07-01T14:43:26.504Z,28.06
2023-07-01T14:46:32.384Z,27.43
2023-07-01T14:49:39.803Z,26.69
2023-07-01T14:52:44.472Z,25.60
2023-07-01T14:55:49.362Z,25.13
2023-07-01T14:58:55.234Z,25.22
2023-07-01T15:02:00.632Z,24.65
2023-07-01T15:05:05.362Z,24.63
2023-07-01T15:08:09.746Z,24.84
2023-07-01T15:11:15.323Z,24.71
2023-07-01T15:14:19.766Z,24.27
2023-07-01T15:17:24.241Z,24.67
2023-07-01T15:20:28.624Z,24.60
2023-07-01T15:23:33.044Z,24.16
2023-07-01T15:26:37.510Z,23.37
2023-07-01T15:29:41.887Z,23.74
2023-07-01T15:32:46.394Z,23.79
2023-07-01T15:35:51.063Z,23.63
2023-07-01T15:38:55.632Z,23.57
2023-07-01T15:42:00.147Z,22.96
2023-07-01T15:45:04.799Z,23.49
2023-07-01T15:48:09.509Z,23.69
2023-07-01T15:51:13.965Z,24.31
2023-07-01T15:54:18.315Z,23.63
2023-07-01T15:57:22.829Z,23.27
2023-07-01T16:00:27.559Z,23.44
2023-07-01T16:03:33.778Z,23.76
2023-07-01T16:06:38.293Z,23.61
2023-07-01T16:09:42.686Z,23.73
2023-07-01T16:12:50.748Z,23.54
2023-07-01T16:15:58.090Z,23.80
2023-07-01T16:19:04.744Z,23.82
2023-07-01T16:22:12.992Z,23.55
2023-07-01T16:25:19.504Z,23.50
2023-07-01T16:28:39.842Z,23.48
2023-07-01T16:31:44.280Z,23.79
2023-07-01T16:34:48.895Z,23.83
2023-07-01T16:37:57.532Z,23.74
2023-07-01T16:41:03.396Z,24.36
2023-07-01T16:44:07.906Z,24.39
2023-07-01T16:47:12.357Z,24.59
2023-07-01T16:50:36.818Z,25.01
2023-07-01T16:53:42.388Z,24.93
2023-07-01T16:56:50.248Z,25.15
2023-07-01T16:59:54.677Z,25.41
2023-07-01T17:03:13.974Z,26.06
2023-07-01T17:06:39.683Z,25.98
2023-07-01T17:09:51.087Z,25.30
2023-07-01T17:12:57.378Z,25.48
2023-07-01T17:16:05.762Z,25.35
2023-07-01T17:19:10.223Z,24.79
2023-07-01T17:22:14.701Z,24.73
2023-07-01T17:25:19.184Z,24.73
2023-07-01T17:28:23.565Z,24.36
2023-07-01T17:31:28.181Z,25.02
2023-07-01T17:34:40.439Z,24.44
2023-07-01T17:37:48.154Z,23.61
2023-07-01T17:40:52.641Z,24.33
2023-07-01T17:43:57.064Z,24.45
2023-07-01T17:47:01.520Z,24.17
2023-07-01T17:50:19.786Z,23.55
2023-07-01T17:53:26.169Z,23.51
2023-07-01T17:56:30.662Z,23.22
2023-07-01T17:59:35.498Z,23.03
2023-07-01T18:02:40.088Z,22.89
2023-07-01T18:05:44.702Z,22.60
2023-07-01T18:08:49.470Z,22.73
2023-07-01T18:11:56.796Z,22.92
2023-07-01T18:15:12.950Z,22.69
2023-07-01T18:18:19.775Z,22.76
2023-07-01T18:21:25.578Z,22.68
2023-07-01T18:24:34.148Z,22.71
2023-07-01T18:27:38.516Z,22.49
2023-07-01T18:30:42.952Z,22.30
2023-07-01T18:33:47.850Z,22.40
2023-07-01T18:36:52.267Z,22.42
2023-07-01T18:39:56.692Z,22.31
2023-07-01T18:43:01.046Z,22.57
2023-07-01T18:46:06.258Z,22.15
2023-07-01T18:49:10.783Z,21.61
2023-07-01T18:52:15.210Z,22.06
2023-07-01T18:55:20.000Z,21.97
2023-07-01T18:58:24.449Z,21.83
2023-07-01T19:01:30.563Z,21.81
2023-07-01T19:04:35.917Z,21.61
2023-07-01T19:07:40.587Z,21.94
2023-07-01T19:10:45.132Z,22.12
2023-07-01T19:13:49.538Z,21.96
2023-07-01T19:16:56.250Z,21.71
2023-07-01T19:20:00.732Z,21.62
2023-07-01T19:23:05.247Z,21.27
2023-07-01T19:26:09.791Z,21.41
2023-07-01T19:29:14.293Z,21.42
2023-07-01T19:32:18.866Z,21.26
2023-07-01T19:35:23.366Z,21.56
2023-07-01T19:38:27.800Z,21.34
2023-07-01T19:41:32.276Z,21.54
2023-07-01T19:44:39.377Z,21.35
2023-07-01T19:47:44.817Z,20.99
2023-07-01T19:50:49.281Z,21.15
2023-07-01T19:53:53.700Z,21.41
2023-07-01T19:56:58.127Z,21.03
2023-07-01T20:00:03.327Z,21.00
2023-07-01T20:03:09.346Z,20.92
2023-07-01T20:06:14.136Z,20.96
2023-07-01T20:09:18.627Z,20.91
2023-07-01T20:12:23.095Z,20.70
2023-07-01T20:15:27.765Z,20.51
2023-07-01T20:18:34.131Z,20.60
2023-07-01T20:21:38.611Z,20.42
2023-07-01T20:24:42.965Z,20.65
2023-07-01T20:27:47.446Z,20.55
2023-07-01T20:30:51.860Z,20.13
2023-07-01T20:33:56.366Z,19.78
2023-07-01T20:37:00.904Z,20.01
2023-07-01T20:40:05.680Z,19.68
2023-07-01T20:43:10.478Z,19.84
2023-07-01T20:46:14.927Z,19.88
2023-07-01T20:49:20.585Z,19.81
2023-07-01T20:52:25.335Z,19.96
2023-07-01T20:55:29.822Z,19.79
2023-07-01T20:58:35.635Z,20.00
2023-07-01T21:01:40.966Z,20.11
2023-07-01T21:04:47.161Z,20.06
2023-07-01T21:07:51.668Z,20.21
2023-07-01T21:10:56.146Z,20.00
2023-07-01T21:14:00.580Z,20.25
2023-07-01T21:17:05.143Z,20.15
2023-07-01T21:20:09.821Z,19.88
2023-07-01T21:23:14.300Z,19.79
2023-07-01T21:26:22.767Z,19.82
2023-07-01T21:29:27.843Z,19.95
2023-07-01T21:32:32.281Z,19.89
2023-07-01T21:35:37.619Z,19.94
2023-07-01T21:38:42.424Z,19.96
2023-07-01T21:41:46.859Z,19.84
2023-07-01T21:44:51.312Z,19.79
2023-07-01T21:47:55.767Z,19.95
2023-07-01T21:51:04.109Z,19.56
2023-07-01T21:54:08.606Z,19.91
2023-07-01T21:57:13.073Z,19.79
2023-07-01T22:00:17.435Z,19.77
2023-07-01T22:03:22.158Z,19.76
2023-07-01T22:06:27.828Z,19.63
2023-07-01T22:09:32.222Z,19.70
2023-07-01T22:12:40.031Z,19.79
2023-07-01T22:15:44.484Z,19.50
2023-07-01T22:18:52.152Z,19.41
2023-07-01T22:21:56.646Z,19.41
2023-07-01T22:25:01.100Z,19.52
2023-07-01T22:28:05.703Z,19.24
2023-07-01T22:31:10.400Z,19.24
2023-07-01T22:34:14.862Z,18.91
2023-07-01T22:37:19.292Z,19.22
2023-07-01T22:40:23.666Z,19.26
2023-07-01T22:43:28.103Z,19.17
2023-07-01T22:46:32.673Z,19.38
2023-07-01T22:49:37.125Z,19.61
2023-07-01T22:52:42.022Z,19.51
2023-07-01T22:55:46.512Z,19.33
2023-07-01T22:58:50.903Z,19.29
2023-07-01T23:01:55.290Z,19.47
2023-07-01T23:05:01.730Z,19.34
2023-07-01T23:08:06.157Z,19.11
2023-07-01T23:11:10.778Z,19.28
2023-07-01T23:14:15.245Z,19.32
2023-07-01T23:17:19.667Z,19.61
2023-07-01T23:20:25.185Z,19.47
2023-07-01T23:23:31.211Z,19.21
2023-07-01T23:26:38.631Z,19.51
2023-07-01T23:29:45.603Z,19.56
2023-07-01T23:32:54.529Z,19.78
2023-07-01T23:35:59.343Z,19.54
2023-07-01T23:39:06.025Z,19.44
2023-07-01T23:42:11.059Z,19.53
2023-07-01T23:45:17.188Z,19.53
2023-07-01T23:48:21.734Z,19.49
2023-07-01T23:51:26.215Z,19.59
2023-07-01T23:54:31.200Z,19.44
2023-07-01T23:57:37.805Z,19.20
